Time;durP1;ratioP1;P1;durP2;ratioP2;P2;SDS_P1;SDS_P2;PMS_P1;PMS_P2;Temp;Humidity;BMP_temperature;BMP_pressure;BME280_temperature;BME280_humidity;BME280_pressure;Samples;Min_cycle;Max_cycle;Signal;HPM_P1;HPM_P2
2023/02/05 00:01:19;;;;;;;30.95;19.58;;;;;;;;;;5012047;28;20044;-73
2023/02/05 00:03:45;;;;;;;39.67;21.45;;;;;;;;;;5017040;28;20046;-73
2023/02/05 00:06:11;;;;;;;43.80;23.67;;;;;;;;;;5007592;28;20040;-73
2023/02/05 00:08:37;;;;;;;43.30;26.00;;;;;;;;;;5006490;28;20075;-73
2023/02/05 00:11:08;;;;;;;41.00;25.08;;;;;;;;;;5010586;28;20038;-73
2023/02/05 00:13:35;;;;;;;38.97;21.25;;;;;;;;;;5012273;28;20026;-73
2023/02/05 00:16:01;;;;;;;41.38;24.88;;;;;;;;;;5007832;28;20368;-73
2023/02/05 00:18:27;;;;;;;39.58;22.92;;;;;;;;;;5015324;28;20038;-73
2023/02/05 00:20:53;;;;;;;41.60;24.55;;;;;;;;;;5016088;28;20053;-72
2023/02/05 00:23:18;;;;;;;34.47;19.15;;;;;;;;;;5012994;28;20513;-73
2023/02/05 00:25:44;;;;;;;31.23;17.30;;;;;;;;;;5008173;28;20037;-73
2023/02/05 00:28:10;;;;;;;25.27;14.02;;;;;;;;;;5009795;28;20466;-73
2023/02/05 00:30:39;;;;;;;41.92;28.52;;;;;;;;;;5012743;28;20037;-73
2023/02/05 00:33:05;;;;;;;40.78;24.30;;;;;;;;;;5012629;28;20088;-73
2023/02/05 00:35:31;;;;;;;32.67;20.20;;;;;;;;;;5009986;28;20615;-72
2023/02/05 00:37:57;;;;;;;31.20;19.23;;;;;;;;;;5013038;28;20041;-73
2023/02/05 00:40:23;;;;;;;35.88;21.55;;;;;;;;;;5008484;28;20065;-72
2023/02/05 00:42:49;;;;;;;39.38;21.60;;;;;;;;;;5012874;28;20484;-73
2023/02/05 00:45:15;;;;;;;49.47;27.83;;;;;;;;;;5014124;28;20076;-73
2023/02/05 00:47:41;;;;;;;50.63;27.27;;;;;;;;;;5001326;28;20129;-73
2023/02/05 00:50:07;;;;;;;56.08;29.02;;;;;;;;;;5008289;28;20112;-72
2023/02/05 00:52:33;;;;;;;56.80;28.17;;;;;;;;;;4997877;28;20033;-72
2023/02/05 00:54:59;;;;;;;62.78;31.35;;;;;;;;;;5012794;28;20045;-73
2023/02/05 00:57:25;;;;;;;58.55;26.98;;;;;;;;;;5021261;28;20037;-73
2023/02/05 00:59:52;;;;;;;52.08;27.13;;;;;;;;;;5011345;28;20646;-73
2023/02/05 01:02:22;;;;;;;40.80;22.90;;;;;;;;;;5013204;28;20391;-73
2023/02/05 01:04:49;;;;;;;47.20;25.00;;;;;;;;;;5006851;28;20030;-72
2023/02/05 01:07:15;;;;;;;42.95;23.00;;;;;;;;;;5014188;28;20376;-73
2023/02/05 01:09:41;;;;;;;46.80;28.35;;;;;;;;;;5011360;28;20747;-73
2023/02/05 01:12:07;;;;;;;46.15;23.90;;;;;;;;;;5008429;28;20048;-72
2023/02/05 01:14:34;;;;;;;58.13;29.63;;;;;;;;;;5016555;28;20037;-73
2023/02/05 01:17:00;;;;;;;44.20;25.17;;;;;;;;;;5010039;28;20038;-72
2023/02/05 01:19:26;;;;;;;42.78;22.90;;;;;;;;;;5022462;28;20071;-73
2023/02/05 01:21:52;;;;;;;44.10;24.55;;;;;;;;;;5021064;28;20084;-72
2023/02/05 01:24:18;;;;;;;42.70;25.88;;;;;;;;;;5013833;28;20440;-72
2023/02/05 01:26:44;;;;;;;44.75;26.35;;;;;;;;;;5010151;28;20037;-72
2023/02/05 01:29:10;;;;;;;43.03;22.98;;;;;;;;;;5017080;28;20029;-73
2023/02/05 01:31:36;;;;;;;49.78;26.38;;;;;;;;;;5014414;28;20387;-73
2023/02/05 01:34:02;;;;;;;56.55;28.98;;;;;;;;;;5017027;28;20049;-73
2023/02/05 01:36:28;;;;;;;53.45;28.23;;;;;;;;;;5014877;28;20034;-73
2023/02/05 01:38:54;;;;;;;61.03;36.13;;;;;;;;;;5022071;28;20029;-72
2023/02/05 01:41:20;;;;;;;64.88;41.63;;;;;;;;;;5014153;28;20558;-73
2023/02/05 01:44:05;;;;;;;41.10;24.75;;;;;;;;;;5013580;28;20793;-73
2023/02/05 01:46:31;;;;;;;36.55;20.00;;;;;;;;;;5019634;28;20037;-72
2023/02/05 01:48:58;;;;;;;46.58;28.25;;;;;;;;;;5018927;28;20120;-73
2023/02/05 01:51:26;;;;;;;36.65;21.48;;;;;;;;;;5014058;28;20430;-73
2023/02/05 01:53:52;;;;;;;42.33;25.98;;;;;;;;;;5018707;28;20124;-73
2023/02/05 01:56:23;;;;;;;34.78;21.30;;;;;;;;;;5013553;28;20399;-73
2023/02/05 01:58:51;;;;;;;42.40;22.65;;;;;;;;;;5013549;28;20022;-73
2023/02/05 02:01:17;;;;;;;37.13;20.35;;;;;;;;;;5014640;28;20101;-73
2023/02/05 02:03:44;;;;;;;48.47;27.33;;;;;;;;;;5014654;28;20153;-72
2023/02/05 02:06:10;;;;;;;50.95;26.95;;;;;;;;;;5011807;28;20037;-73
2023/02/05 02:08:36;;;;;;;48.97;25.80;;;;;;;;;;5016519;28;20079;-73
2023/02/05 02:11:03;;;;;;;49.63;26.40;;;;;;;;;;5015283;28;20045;-73
2023/02/05 02:13:30;;;;;;;50.38;27.10;;;;;;;;;;5015526;28;20044;-73
2023/02/05 02:15:56;;;;;;;42.75;23.90;;;;;;;;;;5015274;28;20033;-73
2023/02/05 02:18:27;;;;;;;46.78;22.38;;;;;;;;;;5015746;28;20395;-73
2023/02/05 02:21:17;;;;;;;47.55;23.40;;;;;;;;;;5011631;28;20026;-72
2023/02/05 02:24:02;;;;;;;46.53;26.75;;;;;;;;;;5014256;28;20029;-73
2023/02/05 02:26:47;;;;;;;42.38;23.67;;;;;;;;;;5012382;28;20072;-73
2023/02/05 02:29:17;;;;;;;49.50;28.45;;;;;;;;;;5017079;28;20040;-73
2023/02/05 02:31:50;;;;;;;47.22;27.77;;;;;;;;;;5020958;28;20052;-72
2023/02/05 02:34:16;;;;;;;40.25;22.63;;;;;;;;;;5016060;28;20055;-72
2023/02/05 02:36:54;;;;;;;41.33;22.90;;;;;;;;;;5007827;28;20703;-73
2023/02/05 02:39:29;;;;;;;43.17;23.48;;;;;;;;;;5010403;28;20053;-72
2023/02/05 02:42:15;;;;;;;40.42;22.50;;;;;;;;;;5010465;28;20874;-73
2023/02/05 02:44:44;;;;;;;38.78;23.95;;;;;;;;;;5015410;28;20062;-73
2023/02/05 02:47:15;;;;;;;47.92;25.13;;;;;;;;;;5016363;28;20688;-73
2023/02/05 02:49:55;;;;;;;38.85;21.70;;;;;;;;;;5016727;28;20083;-72
2023/02/05 02:52:23;;;;;;;37.22;21.40;;;;;;;;;;5010966;28;20113;-73
2023/02/05 02:54:50;;;;;;;37.63;20.40;;;;;;;;;;5016440;28;20052;-73
2023/02/05 02:57:18;;;;;;;38.42;24.65;;;;;;;;;;5015950;28;20033;-72
2023/02/05 02:59:46;;;;;;;40.53;22.25;;;;;;;;;;5013344;28;20203;-72
2023/02/05 03:02:14;;;;;;;37.05;21.05;;;;;;;;;;5010877;28;20045;-73
2023/02/05 03:04:42;;;;;;;37.00;21.27;;;;;;;;;;5018869;28;20026;-73
2023/02/05 03:07:18;;;;;;;40.08;22.60;;;;;;;;;;5017898;28;20688;-73
2023/02/05 03:10:06;;;;;;;34.40;21.38;;;;;;;;;;5016702;28;20060;-73
2023/02/05 03:12:33;;;;;;;36.85;21.00;;;;;;;;;;4998262;28;20210;-73
2023/02/05 03:14:59;;;;;;;35.97;20.63;;;;;;;;;;5015406;28;20553;-73
2023/02/05 03:17:26;;;;;;;29.80;17.67;;;;;;;;;;5013629;28;20038;-73
2023/02/05 03:19:55;;;;;;;29.23;17.92;;;;;;;;;;5010088;28;20033;-73
2023/02/05 03:22:21;;;;;;;29.95;19.02;;;;;;;;;;5014126;28;20111;-73
2023/02/05 03:24:47;;;;;;;34.65;18.13;;;;;;;;;;5018428;28;20137;-73
2023/02/05 03:27:14;;;;;;;29.38;16.17;;;;;;;;;;5013823;28;20574;-73
2023/02/05 03:29:43;;;;;;;31.38;16.88;;;;;;;;;;5007274;28;20104;-73
2023/02/05 03:32:28;;;;;;;30.13;16.00;;;;;;;;;;5010052;28;20367;-73
2023/02/05 03:34:53;;;;;;;30.42;17.38;;;;;;;;;;5010058;28;20057;-73
2023/02/05 03:37:19;;;;;;;25.90;15.15;;;;;;;;;;5012448;28;20486;-73
2023/02/05 03:40:11;;;;;;;27.52;15.57;;;;;;;;;;5017563;28;20116;-73
2023/02/05 03:42:40;;;;;;;24.63;13.55;;;;;;;;;;5010545;28;20054;-73
2023/02/05 03:45:13;;;;;;;23.15;12.63;;;;;;;;;;5012173;28;20096;-72
2023/02/05 03:47:42;;;;;;;20.50;11.85;;;;;;;;;;5010806;28;20042;-73
2023/02/05 03:50:20;;;;;;;19.77;11.07;;;;;;;;;;5015222;28;20034;-72
2023/02/05 03:52:50;;;;;;;23.17;12.77;;;;;;;;;;5015597;28;20038;-73
2023/02/05 03:55:22;;;;;;;14.55;8.27;;;;;;;;;;5011752;28;20037;-73
2023/02/05 03:57:55;;;;;;;17.40;9.50;;;;;;;;;;5011568;28;20845;-73
2023/02/05 04:00:21;;;;;;;15.70;9.05;;;;;;;;;;5010708;28;20048;-73
2023/02/05 04:02:47;;;;;;;17.17;9.85;;;;;;;;;;5011931;28;20049;-73
2023/02/05 04:05:13;;;;;;;15.80;8.63;;;;;;;;;;5011579;28;20068;-72
2023/02/05 04:07:39;;;;;;;14.13;8.52;;;;;;;;;;5015109;28;20029;-73
2023/02/05 04:10:05;;;;;;;14.70;8.90;;;;;;;;;;5012666;28;20459;-73
2023/02/05 04:12:31;;;;;;;18.60;10.30;;;;;;;;;;5011578;28;20044;-73
2023/02/05 04:14:57;;;;;;;17.48;9.60;;;;;;;;;;5015085;28;20037;-73
2023/02/05 04:17:23;;;;;;;16.73;9.77;;;;;;;;;;5009858;28;20053;-73
2023/02/05 04:19:49;;;;;;;15.88;8.82;;;;;;;;;;5013923;28;20025;-73
2023/02/05 04:22:15;;;;;;;18.08;9.15;;;;;;;;;;5005771;28;20965;-73
2023/02/05 04:24:41;;;;;;;15.93;9.13;;;;;;;;;;5013237;28;20041;-72
2023/02/05 04:27:07;;;;;;;18.15;10.23;;;;;;;;;;5008734;28;20483;-72
2023/02/05 04:29:33;;;;;;;17.58;9.73;;;;;;;;;;5014768;28;20044;-72
2023/02/05 04:31:59;;;;;;;16.23;8.68;;;;;;;;;;5010358;28;20517;-73
2023/02/05 04:34:25;;;;;;;16.08;9.45;;;;;;;;;;5010404;28;20076;-73
2023/02/05 04:36:51;;;;;;;16.98;9.88;;;;;;;;;;5015674;28;20403;-73
2023/02/05 04:39:17;;;;;;;14.85;8.98;;;;;;;;;;5011968;28;20034;-74
2023/02/05 04:41:43;;;;;;;14.50;8.02;;;;;;;;;;5014363;28;20383;-73
2023/02/05 04:44:09;;;;;;;14.45;8.80;;;;;;;;;;5013661;28;20039;-73
2023/02/05 04:46:35;;;;;;;14.10;7.78;;;;;;;;;;5011734;28;20061;-73
2023/02/05 04:49:02;;;;;;;15.15;8.18;;;;;;;;;;5014229;28;20453;-73
2023/02/05 04:51:28;;;;;;;14.98;8.05;;;;;;;;;;5010636;28;20041;-73
2023/02/05 04:53:54;;;;;;;13.52;7.47;;;;;;;;;;5013971;28;20046;-73
2023/02/05 04:56:20;;;;;;;14.18;8.02;;;;;;;;;;5016482;28;20112;-73
2023/02/05 04:58:46;;;;;;;14.18;8.20;;;;;;;;;;5015084;28;20034;-73
2023/02/05 05:01:13;;;;;;;14.90;8.02;;;;;;;;;;5014123;28;20034;-73
2023/02/05 05:03:39;;;;;;;13.77;7.43;;;;;;;;;;5018519;28;20061;-73
2023/02/05 05:06:06;;;;;;;13.95;8.63;;;;;;;;;;5013350;28;20040;-73
2023/02/05 05:08:32;;;;;;;13.45;8.02;;;;;;;;;;5014137;28;20848;-73
2023/02/05 05:10:58;;;;;;;15.52;9.57;;;;;;;;;;5013827;28;20383;-73
2023/02/05 05:13:24;;;;;;;17.52;10.88;;;;;;;;;;5015657;28;20057;-73
2023/02/05 05:15:53;;;;;;;15.80;9.20;;;;;;;;;;5014147;28;20152;-73
2023/02/05 05:18:19;;;;;;;17.25;10.82;;;;;;;;;;5020140;28;20036;-72
2023/02/05 05:20:46;;;;;;;19.27;11.40;;;;;;;;;;5020383;28;20033;-73
2023/02/05 05:23:11;;;;;;;17.73;11.07;;;;;;;;;;5013512;28;20034;-73
2023/02/05 05:25:45;;;;;;;18.00;10.93;;;;;;;;;;4999136;28;20067;-72
2023/02/05 05:28:11;;;;;;;17.38;11.07;;;;;;;;;;5015423;28;20021;-72
2023/02/05 05:30:38;;;;;;;18.15;11.27;;;;;;;;;;5013753;28;20045;-72
2023/02/05 05:33:04;;;;;;;17.27;10.52;;;;;;;;;;5012565;28;20105;-72
2023/02/05 05:35:30;;;;;;;20.63;12.80;;;;;;;;;;5014938;28;20622;-73
2023/02/05 05:37:57;;;;;;;21.52;14.05;;;;;;;;;;5013509;28;20033;-72
2023/02/05 05:45:56;;;;;;;16.73;11.13;;;;;;;;;;5013323;28;20053;-73
2023/02/05 05:48:22;;;;;;;19.73;12.43;;;;;;;;;;5011325;28;20042;-73
2023/02/05 05:50:48;;;;;;;19.30;11.18;;;;;;;;;;5015827;28;20068;-72
2023/02/05 05:53:14;;;;;;;15.43;10.50;;;;;;;;;;5016031;28;20057;-73
2023/02/05 05:55:40;;;;;;;18.35;11.10;;;;;;;;;;5012028;28;20412;-73
2023/02/05 05:58:06;;;;;;;19.48;11.90;;;;;;;;;;5014379;28;20030;-72
2023/02/05 06:00:32;;;;;;;20.52;12.52;;;;;;;;;;5013109;28;20103;-73
2023/02/05 06:02:58;;;;;;;20.50;12.65;;;;;;;;;;5013548;28;20046;-73
2023/02/05 06:05:24;;;;;;;19.17;10.32;;;;;;;;;;5015030;28;20041;-73
2023/02/05 06:07:50;;;;;;;17.85;12.13;;;;;;;;;;5015332;28;20038;-73
2023/02/05 06:10:16;;;;;;;15.60;10.20;;;;;;;;;;5015404;28;20033;-73
2023/02/05 06:12:43;;;;;;;15.18;9.75;;;;;;;;;;5009944;28;20044;-72
2023/02/05 06:15:09;;;;;;;14.45;9.70;;;;;;;;;;5017513;28;20896;-72
2023/02/05 06:17:35;;;;;;;15.52;10.45;;;;;;;;;;5016131;28;20034;-73
2023/02/05 06:20:01;;;;;;;49.45;23.30;;;;;;;;;;5013317;28;20041;-73
2023/02/05 06:22:27;;;;;;;69.50;29.92;;;;;;;;;;5012464;28;20418;-73
2023/02/05 06:24:53;;;;;;;131.43;51.35;;;;;;;;;;5013412;28;20124;-73
2023/02/05 06:27:19;;;;;;;121.13;47.65;;;;;;;;;;5013962;28;20430;-72
2023/02/05 06:29:45;;;;;;;111.30;44.08;;;;;;;;;;5014440;28;20083;-72
2023/02/05 06:32:11;;;;;;;97.03;38.97;;;;;;;;;;5012928;28;20128;-72
2023/02/05 06:34:37;;;;;;;65.80;26.77;;;;;;;;;;5013599;28;20041;-73
2023/02/05 06:37:03;;;;;;;53.33;22.45;;;;;;;;;;5012422;28;20878;-73
2023/02/05 06:39:29;;;;;;;54.92;24.27;;;;;;;;;;5013875;28;20033;-73
2023/02/05 06:41:55;;;;;;;69.60;27.30;;;;;;;;;;5013849;28;20030;-72
2023/02/05 06:44:23;;;;;;;43.00;19.38;;;;;;;;;;5015574;28;20510;-72
2023/02/05 06:46:49;;;;;;;50.50;22.35;;;;;;;;;;5014038;28;20041;-72
2023/02/05 06:49:15;;;;;;;51.80;22.75;;;;;;;;;;5017813;28;20044;-72
2023/02/05 06:51:41;;;;;;;46.40;23.13;;;;;;;;;;5014854;28;20082;-72
2023/02/05 06:54:07;;;;;;;29.65;16.38;;;;;;;;;;5010841;28;20033;-73
2023/02/05 06:56:33;;;;;;;32.50;17.50;;;;;;;;;;5013467;28;20043;-73
2023/02/05 06:58:59;;;;;;;29.00;17.50;;;;;;;;;;5013028;28;20040;-72
2023/02/05 07:01:25;;;;;;;23.60;13.98;;;;;;;;;;5010417;28;20556;-73
2023/02/05 07:03:54;;;;;;;23.90;14.45;;;;;;;;;;5014064;28;20041;-73
2023/02/05 07:06:22;;;;;;;28.25;15.00;;;;;;;;;;5013290;28;20034;-73
2023/02/05 07:08:48;;;;;;;23.23;13.80;;;;;;;;;;5016791;28;20041;-73
2023/02/05 07:11:14;;;;;;;25.30;16.52;;;;;;;;;;5012452;28;20033;-73
2023/02/05 07:13:40;;;;;;;31.90;19.70;;;;;;;;;;5012445;28;20125;-73
2023/02/05 07:16:06;;;;;;;32.15;21.08;;;;;;;;;;5009783;28;20030;-73
2023/02/05 07:18:33;;;;;;;28.65;18.58;;;;;;;;;;5016822;28;20042;-72
2023/02/05 07:20:59;;;;;;;34.10;22.70;;;;;;;;;;5014066;28;20025;-73
2023/02/05 07:23:25;;;;;;;32.05;20.77;;;;;;;;;;5010278;28;20042;-73
2023/02/05 07:25:51;;;;;;;74.80;41.88;;;;;;;;;;5011825;28;20032;-73
2023/02/05 07:28:17;;;;;;;67.38;37.85;;;;;;;;;;5015698;28;20045;-73
2023/02/05 07:30:43;;;;;;;49.80;28.58;;;;;;;;;;4998596;28;20348;-72
2023/02/05 07:33:09;;;;;;;28.40;16.50;;;;;;;;;;5011613;28;20053;-72
2023/02/05 07:35:38;;;;;;;28.88;18.55;;;;;;;;;;5016233;28;20494;-72
2023/02/05 07:38:04;;;;;;;26.42;17.27;;;;;;;;;;5011696;28;20030;-73
2023/02/05 07:40:30;;;;;;;24.33;15.52;;;;;;;;;;5010202;28;20033;-73
2023/02/05 07:42:56;;;;;;;20.83;14.52;;;;;;;;;;5012751;28;20034;-73
2023/02/05 07:45:22;;;;;;;25.08;14.65;;;;;;;;;;5013802;28;20033;-73
2023/02/05 07:47:52;;;;;;;23.80;15.18;;;;;;;;;;4997380;28;20160;-73
2023/02/05 07:50:19;;;;;;;26.90;15.85;;;;;;;;;;5017091;28;20394;-73
2023/02/05 07:52:45;;;;;;;29.48;16.48;;;;;;;;;;5015721;28;20802;-73
2023/02/05 07:55:11;;;;;;;24.73;16.80;;;;;;;;;;5011910;28;20067;-73
2023/02/05 07:57:37;;;;;;;23.95;16.35;;;;;;;;;;4996643;28;20054;-73
2023/02/05 08:00:03;;;;;;;27.42;17.33;;;;;;;;;;5013956;28;20045;-73
2023/02/05 08:02:29;;;;;;;29.65;21.05;;;;;;;;;;5011761;28;20037;-73
2023/02/05 08:04:55;;;;;;;34.80;24.63;;;;;;;;;;4998960;28;20103;-73
2023/02/05 08:07:21;;;;;;;37.67;27.58;;;;;;;;;;5014491;28;20546;-73
2023/02/05 08:09:47;;;;;;;36.08;25.33;;;;;;;;;;5015657;28;20041;-73
2023/02/05 08:12:13;;;;;;;31.88;20.67;;;;;;;;;;5016221;28;20029;-73
2023/02/05 08:14:39;;;;;;;31.60;21.55;;;;;;;;;;5008307;28;20065;-73
2023/02/05 08:17:05;;;;;;;30.90;20.98;;;;;;;;;;5012023;28;21048;-73
2023/02/05 08:19:31;;;;;;;30.52;21.33;;;;;;;;;;5012979;28;20029;-73
2023/02/05 08:21:57;;;;;;;30.02;21.23;;;;;;;;;;5011477;28;20468;-74
2023/02/05 08:24:23;;;;;;;31.98;23.00;;;;;;;;;;5012831;28;20068;-74
2023/02/05 08:26:49;;;;;;;30.65;22.20;;;;;;;;;;5013450;28;20475;-72
2023/02/05 08:29:15;;;;;;;28.20;21.15;;;;;;;;;;5016335;28;20026;-73
2023/02/05 08:31:41;;;;;;;41.50;27.33;;;;;;;;;;5016216;28;20057;-73
2023/02/05 08:34:07;;;;;;;45.88;29.05;;;;;;;;;;5018359;28;20037;-72
2023/02/05 08:36:33;;;;;;;52.53;31.02;;;;;;;;;;5012546;28;20051;-73
2023/02/05 08:38:59;;;;;;;45.08;26.08;;;;;;;;;;5016070;28;20041;-72
2023/02/05 08:41:25;;;;;;;26.95;13.65;;;;;;;;;;5016788;28;20037;-72
2023/02/05 08:43:51;;;;;;;18.63;12.68;;;;;;;;;;5018680;28;20083;-73
2023/02/05 08:46:19;;;;;;;20.92;13.35;;;;;;;;;;5016847;28;20042;-72
2023/02/05 08:48:46;;;;;;;20.80;13.82;;;;;;;;;;5016016;28;20104;-73
2023/02/05 08:51:13;;;;;;;23.42;13.15;;;;;;;;;;5013819;28;20537;-72
2023/02/05 08:53:40;;;;;;;21.65;12.68;;;;;;;;;;5017100;28;20044;-73
2023/02/05 08:56:09;;;;;;;18.67;12.88;;;;;;;;;;5018520;28;20087;-72
2023/02/05 08:58:35;;;;;;;21.95;13.65;;;;;;;;;;5019889;28;20025;-72
2023/02/05 09:01:05;;;;;;;22.75;14.40;;;;;;;;;;5014578;28;20034;-73
2023/02/05 09:03:31;;;;;;;24.23;15.85;;;;;;;;;;5015052;28;20061;-73
2023/02/05 09:05:58;;;;;;;25.40;17.13;;;;;;;;;;5018160;28;20049;-72
2023/02/05 09:08:25;;;;;;;29.65;17.42;;;;;;;;;;5020200;28;20033;-72
2023/02/05 09:10:51;;;;;;;24.15;15.48;;;;;;;;;;5011375;28;20042;-72
2023/02/05 09:13:17;;;;;;;24.52;16.85;;;;;;;;;;5023114;28;20123;-72
2023/02/05 09:15:43;;;;;;;27.23;16.90;;;;;;;;;;5014857;28;20750;-72
2023/02/05 09:18:09;;;;;;;21.50;14.13;;;;;;;;;;5015270;28;20033;-73
2023/02/05 09:20:39;;;;;;;25.70;15.23;;;;;;;;;;5015635;28;20125;-73
2023/02/05 09:23:05;;;;;;;21.83;14.48;;;;;;;;;;5017736;28;20034;-72
2023/02/05 09:25:32;;;;;;;20.00;13.77;;;;;;;;;;5019724;28;20040;-73
2023/02/05 09:27:58;;;;;;;22.23;13.68;;;;;;;;;;5016495;28;22097;-72
2023/02/05 09:30:24;;;;;;;25.30;14.02;;;;;;;;;;5012101;28;20033;-72
2023/02/05 09:32:50;;;;;;;24.05;13.80;;;;;;;;;;5016775;28;20380;-73
2023/02/05 09:35:16;;;;;;;20.85;13.75;;;;;;;;;;5016701;28;20059;-72
2023/02/05 09:37:42;;;;;;;22.02;14.75;;;;;;;;;;5017386;28;20048;-73
2023/02/05 09:40:15;;;;;;;20.25;14.13;;;;;;;;;;5014657;28;20367;-73
2023/02/05 09:42:50;;;;;;;24.05;15.15;;;;;;;;;;5019949;28;20036;-73
2023/02/05 09:45:31;;;;;;;23.70;15.73;;;;;;;;;;5018040;28;20433;-73
2023/02/05 09:48:06;;;;;;;25.23;15.38;;;;;;;;;;5019586;28;20117;-73
2023/02/05 09:50:33;;;;;;;22.45;14.50;;;;;;;;;;5012578;28;20636;-73
2023/02/05 09:53:04;;;;;;;24.40;15.50;;;;;;;;;;5018307;28;20729;-73
2023/02/05 09:55:32;;;;;;;22.50;14.57;;;;;;;;;;5019709;28;20124;-72
2023/02/05 09:58:11;;;;;;;23.10;13.98;;;;;;;;;;5016040;28;20030;-73
2023/02/05 10:00:43;;;;;;;20.35;13.43;;;;;;;;;;5019392;28;20033;-73
2023/02/05 10:03:20;;;;;;;19.75;12.95;;;;;;;;;;5016812;28;20046;-73
2023/02/05 10:05:54;;;;;;;21.15;13.65;;;;;;;;;;5015922;28;20037;-73
2023/02/05 10:08:38;;;;;;;21.63;12.45;;;;;;;;;;5014255;28;20104;-73
2023/02/05 10:11:11;;;;;;;17.65;11.30;;;;;;;;;;5019873;28;20132;-73
2023/02/05 10:13:40;;;;;;;20.02;13.02;;;;;;;;;;5012693;28;20467;-74
2023/02/05 10:16:24;;;;;;;19.48;12.43;;;;;;;;;;5015677;28;20073;-73
2023/02/05 10:19:04;;;;;;;20.17;13.50;;;;;;;;;;5013806;28;20104;-74
2023/02/05 10:21:48;;;;;;;21.67;13.82;;;;;;;;;;5017307;28;20033;-73
2023/02/05 10:24:23;;;;;;;17.20;11.30;;;;;;;;;;5016518;28;20057;-74
2023/02/05 10:26:51;;;;;;;21.13;11.90;;;;;;;;;;5019397;28;20103;-73
2023/02/05 10:29:26;;;;;;;12.80;8.73;;;;;;;;;;5013835;28;20033;-73
2023/02/05 10:31:58;;;;;;;11.88;8.55;;;;;;;;;;5018214;28;20258;-74
2023/02/05 10:34:35;;;;;;;16.08;10.45;;;;;;;;;;5016918;28;20037;-74
2023/02/05 10:37:02;;;;;;;16.83;11.48;;;;;;;;;;5019047;28;20124;-73
2023/02/05 10:39:29;;;;;;;18.70;10.32;;;;;;;;;;5017948;28;20835;-74
2023/02/05 10:41:55;;;;;;;17.02;9.93;;;;;;;;;;5018105;28;20026;-74
2023/02/05 10:44:21;;;;;;;16.52;10.00;;;;;;;;;;5017448;28;20402;-74
2023/02/05 10:46:51;;;;;;;13.77;10.48;;;;;;;;;;5017635;28;20068;-73
2023/02/05 10:49:26;;;;;;;16.38;9.23;;;;;;;;;;5020703;28;20033;-73
2023/02/05 10:51:52;;;;;;;13.02;8.45;;;;;;;;;;5015881;28;20034;-73
2023/02/05 10:54:32;;;;;;;13.00;8.88;;;;;;;;;;5014382;28;20032;-74
2023/02/05 10:56:59;;;;;;;17.88;8.98;;;;;;;;;;5021515;28;20075;-73
2023/02/05 10:59:29;;;;;;;17.98;10.52;;;;;;;;;;5015253;28;20099;-73
2023/02/05 11:01:57;;;;;;;19.42;11.85;;;;;;;;;;5021383;28;20072;-74
2023/02/05 11:04:42;;;;;;;15.90;9.52;;;;;;;;;;5003125;28;20108;-73
2023/02/05 11:07:12;;;;;;;14.73;8.32;;;;;;;;;;5015080;28;20189;-73
2023/02/05 11:09:38;;;;;;;13.88;8.10;;;;;;;;;;5015759;28;20061;-73
2023/02/05 11:12:08;;;;;;;16.17;8.95;;;;;;;;;;5012229;28;20089;-73
2023/02/05 11:14:39;;;;;;;22.00;11.48;;;;;;;;;;5012485;28;20036;-71
2023/02/05 11:17:24;;;;;;;17.05;9.60;;;;;;;;;;5014847;28;20520;-72
2023/02/05 11:19:58;;;;;;;11.48;6.70;;;;;;;;;;5015200;28;20105;-72
2023/02/05 11:22:26;;;;;;;8.18;6.03;;;;;;;;;;5013508;28;20125;-72
2023/02/05 11:25:03;;;;;;;8.55;5.88;;;;;;;;;;5011196;28;20040;-72
2023/02/05 11:27:33;;;;;;;11.15;6.28;;;;;;;;;;5012017;28;20069;-72
2023/02/05 11:30:19;;;;;;;10.65;6.88;;;;;;;;;;5012502;28;20033;-72
2023/02/05 11:32:46;;;;;;;11.15;6.60;;;;;;;;;;5004293;28;20062;-71
2023/02/05 11:35:21;;;;;;;13.15;7.68;;;;;;;;;;5016385;28;20872;-72
2023/02/05 11:37:49;;;;;;;12.73;7.13;;;;;;;;;;5012324;28;20040;-72
2023/02/05 11:40:29;;;;;;;13.63;7.22;;;;;;;;;;5018866;28;20025;-72
2023/02/05 11:43:18;;;;;;;11.18;6.40;;;;;;;;;;5012243;28;20034;-71
2023/02/05 11:45:48;;;;;;;9.63;5.43;;;;;;;;;;4992150;28;20466;-72
2023/02/05 11:48:36;;;;;;;8.27;5.30;;;;;;;;;;5012768;28;20038;-72
2023/02/05 11:51:04;;;;;;;5.75;2.95;;;;;;;;;;5014243;28;20529;-72
2023/02/05 11:53:33;;;;;;;7.32;3.50;;;;;;;;;;5013551;28;20038;-72
2023/02/05 11:56:07;;;;;;;5.30;2.72;;;;;;;;;;5012631;28;20502;-72
2023/02/05 11:58:34;;;;;;;7.35;4.35;;;;;;;;;;5010850;28;20805;-72
2023/02/05 12:01:20;;;;;;;8.32;5.03;;;;;;;;;;5010043;28;20494;-72
2023/02/05 12:03:57;;;;;;;8.07;5.70;;;;;;;;;;5014153;28;20045;-72
2023/02/05 12:06:27;;;;;;;10.80;5.95;;;;;;;;;;5007354;28;20111;-73
2023/02/05 12:08:54;;;;;;;11.43;5.20;;;;;;;;;;5007616;28;20139;-73
2023/02/05 12:11:22;;;;;;;8.85;5.45;;;;;;;;;;5010429;28;20108;-73
2023/02/05 12:14:01;;;;;;;10.40;6.43;;;;;;;;;;5012337;28;20044;-73
2023/02/05 12:16:47;;;;;;;8.88;5.93;;;;;;;;;;5014942;28;20106;-72
2023/02/05 12:19:28;;;;;;;9.98;6.75;;;;;;;;;;5011725;28;20030;-73
2023/02/05 12:22:00;;;;;;;9.70;5.10;;;;;;;;;;5011892;28;20490;-73
2023/02/05 12:24:46;;;;;;;8.02;4.40;;;;;;;;;;5009814;28;20034;-72
2023/02/05 12:27:26;;;;;;;6.85;4.10;;;;;;;;;;5014285;28;20112;-72
2023/02/05 12:30:03;;;;;;;8.60;4.88;;;;;;;;;;5014356;28;20434;-72
2023/02/05 12:32:41;;;;;;;9.18;5.20;;;;;;;;;;5015822;28;20383;-72
2023/02/05 12:35:26;;;;;;;8.35;5.20;;;;;;;;;;5012268;28;20129;-72
2023/02/05 12:38:04;;;;;;;7.93;5.05;;;;;;;;;;5010268;28;20140;-72
2023/02/05 12:40:33;;;;;;;7.93;4.88;;;;;;;;;;5013618;28;20037;-72
2023/02/05 12:42:59;;;;;;;8.30;4.80;;;;;;;;;;4990202;28;20036;-72
2023/02/05 12:45:25;;;;;;;7.90;4.63;;;;;;;;;;5012059;28;20579;-72
2023/02/05 12:47:54;;;;;;;7.78;4.22;;;;;;;;;;5006879;28;20030;-72
2023/02/05 12:50:23;;;;;;;7.07;4.32;;;;;;;;;;5010131;28;20042;-72
2023/02/05 12:52:49;;;;;;;7.10;4.40;;;;;;;;;;5012375;28;20034;-72
2023/02/05 12:55:24;;;;;;;6.93;4.22;;;;;;;;;;5010500;28;20064;-72
2023/02/05 12:57:56;;;;;;;7.65;4.45;;;;;;;;;;5011513;28;20044;-72
2023/02/05 13:00:32;;;;;;;7.50;4.47;;;;;;;;;;5014194;28;20365;-72
2023/02/05 13:03:04;;;;;;;9.85;5.30;;;;;;;;;;5012748;28;20042;-72
2023/02/05 13:05:31;;;;;;;8.40;5.20;;;;;;;;;;5012039;28;20474;-72
2023/02/05 13:08:02;;;;;;;11.52;6.20;;;;;;;;;;5008296;28;20036;-72
2023/02/05 13:10:33;;;;;;;7.75;5.63;;;;;;;;;;5013772;28;20042;-72
2023/02/05 13:13:01;;;;;;;8.85;5.20;;;;;;;;;;5009511;28;20061;-72
2023/02/05 13:15:35;;;;;;;8.23;5.35;;;;;;;;;;5018698;28;20048;-72
2023/02/05 13:18:04;;;;;;;11.27;5.10;;;;;;;;;;5011362;28;20030;-72
2023/02/05 13:28:59;;;;;;;12.82;7.15;;;;;;;;;;5012748;28;20686;-72
2023/02/05 13:31:30;;;;;;;12.48;6.97;;;;;;;;;;5018920;28;20102;-72
2023/02/05 13:34:00;;;;;;;15.00;8.80;;;;;;;;;;5017758;28;20032;-72
2023/02/05 13:36:26;;;;;;;11.93;6.75;;;;;;;;;;5019165;28;20029;-72
2023/02/05 13:39:12;;;;;;;9.93;4.55;;;;;;;;;;5014529;28;20072;-72
2023/02/05 13:41:50;;;;;;;12.57;5.07;;;;;;;;;;5017025;28;20575;-72
2023/02/05 13:44:35;;;;;;;10.30;5.32;;;;;;;;;;5012593;28;20036;-72
2023/02/05 13:47:07;;;;;;;8.73;4.80;;;;;;;;;;5012330;28;20044;-72
2023/02/05 13:49:51;;;;;;;8.43;3.92;;;;;;;;;;5016061;28;20134;-72
2023/02/05 13:52:24;;;;;;;12.55;4.90;;;;;;;;;;5011058;28;20148;-72
2023/02/05 13:54:49;;;;;;;;;;;;;;;;;;5016683;28;20095;-72
2023/02/05 13:57:35;;;;;;;9.82;4.70;;;;;;;;;;5015880;28;19925;-72
2023/02/05 14:00:02;;;;;;;6.70;3.55;;;;;;;;;;5010888;28;20022;-72
2023/02/05 14:02:28;;;;;;;8.57;4.05;;;;;;;;;;5014384;28;20384;-72
2023/02/05 14:04:55;;;;;;;10.18;4.15;;;;;;;;;;5014220;28;20037;-72
2023/02/05 14:07:23;;;;;;;9.63;4.32;;;;;;;;;;5014179;28;20034;-72
2023/02/05 14:09:55;;;;;;;10.52;4.45;;;;;;;;;;5010286;28;20030;-72
2023/02/05 14:12:37;;;;;;;10.77;3.93;;;;;;;;;;5016965;28;20042;-72
2023/02/05 14:15:15;;;;;;;9.15;3.85;;;;;;;;;;5016687;28;20037;-72
2023/02/05 14:17:41;;;;;;;7.80;3.03;;;;;;;;;;5012207;28;20554;-72
2023/02/05 14:20:25;;;;;;;12.82;3.13;;;;;;;;;;5014230;28;20034;-72
2023/02/05 14:22:56;;;;;;;11.02;3.78;;;;;;;;;;5013995;28;20046;-72
2023/02/05 14:25:35;;;;;;;8.15;3.08;;;;;;;;;;5017181;28;20645;-72
2023/02/05 14:28:01;;;;;;;12.05;3.38;;;;;;;;;;5015996;28;20779;-72
2023/02/05 14:30:31;;;;;;;7.78;3.10;;;;;;;;;;5011520;28;20042;-72
2023/02/05 14:33:20;;;;;;;8.95;2.42;;;;;;;;;;5012763;28;20030;-72
2023/02/05 14:35:47;;;;;;;6.80;2.13;;;;;;;;;;5005383;28;20049;-72
2023/02/05 14:38:30;;;;;;;9.20;1.95;;;;;;;;;;5011380;28;20037;-72
2023/02/05 14:41:01;;;;;;;7.13;2.08;;;;;;;;;;5013963;28;20080;-72
2023/02/05 14:43:32;;;;;;;8.32;2.42;;;;;;;;;;5016435;28;20025;-72
2023/02/05 14:46:01;;;;;;;7.70;2.05;;;;;;;;;;5016928;28;20423;-72
2023/02/05 14:48:32;;;;;;;5.57;2.38;;;;;;;;;;5018432;28;20033;-73
2023/02/05 14:51:04;;;;;;;6.72;1.70;;;;;;;;;;5014934;28;20574;-72